createdAt,value
2019-04-22T00:01:17.150Z,16.00
2019-04-22T00:03:52.180Z,15.90
2019-04-22T00:06:39.220Z,15.90
2019-04-22T00:09:14.794Z,15.90
2019-04-22T00:11:40.190Z,15.80
2019-04-22T00:14:05.614Z,15.80
2019-04-22T00:16:47.244Z,15.70
2019-04-22T00:19:15.386Z,15.60
2019-04-22T00:21:42.224Z,15.70
2019-04-22T00:24:10.662Z,15.60
2019-04-22T00:26:48.372Z,15.60
2019-04-22T00:29:35.937Z,15.60
2019-04-22T00:31:40.614Z,15.60
2019-04-22T00:34:14.282Z,15.50
2019-04-22T00:36:42.066Z,15.50
2019-04-22T00:39:21.975Z,15.40
2019-04-22T00:41:49.013Z,15.50
2019-04-22T00:44:22.254Z,15.60
2019-04-22T00:46:46.385Z,15.70
2019-04-22T00:49:58.290Z,15.60
2019-04-22T00:51:58.330Z,15.60
2019-04-22T00:54:17.047Z,15.70
2019-04-22T00:56:42.314Z,15.60
2019-04-22T00:59:20.097Z,15.60
2019-04-22T01:01:50.617Z,15.50
2019-04-22T01:04:23.041Z,15.50
2019-04-22T01:06:44.331Z,15.50
2019-04-22T01:09:19.149Z,15.40
2019-04-22T01:11:45.335Z,15.40
2019-04-22T01:14:22.066Z,15.30
2019-04-22T01:16:50.699Z,15.30
2019-04-22T01:19:26.379Z,15.20
2019-04-22T01:21:43.834Z,15.10
2019-04-22T01:24:16.786Z,15.10
2019-04-22T01:26:43.640Z,15.00
2019-04-22T01:29:10.971Z,15.00
2019-04-22T01:31:34.056Z,14.90
2019-04-22T01:34:10.257Z,14.80
2019-04-22T01:36:51.489Z,14.80
2019-04-22T01:39:25.862Z,14.80
2019-04-22T01:42:01.265Z,14.80
2019-04-22T01:44:33.364Z,14.70
2019-04-22T01:46:58.751Z,14.80
2019-04-22T01:49:27.596Z,14.90
2019-04-22T01:54:38.308Z,14.80
2019-04-22T01:56:58.686Z,14.90
2019-04-22T01:59:19.891Z,14.90
2019-04-22T02:02:03.149Z,14.90
2019-04-22T02:04:47.959Z,14.90
2019-04-22T02:07:03.249Z,14.90
2019-04-22T02:12:05.940Z,14.80
2019-04-22T02:14:34.079Z,14.90
2019-04-22T02:22:04.156Z,15.00
2019-04-22T02:24:39.795Z,15.00
2019-04-22T02:27:13.541Z,15.00
2019-04-22T02:29:37.300Z,15.00
2019-04-22T02:34:42.074Z,15.00
2019-04-22T02:37:13.515Z,15.00
2019-04-22T02:39:40.983Z,15.00
2019-04-22T02:42:11.895Z,15.00
2019-04-22T02:44:42.550Z,14.80
2019-04-22T02:47:15.658Z,14.80
2019-04-22T02:49:39.849Z,14.80
2019-04-22T02:52:18.150Z,14.50
2019-04-22T02:57:26.138Z,14.50
2019-04-22T02:59:43.354Z,14.60
2019-04-22T03:02:14.380Z,14.50
2019-04-22T03:04:43.945Z,14.50
2019-04-22T03:07:12.766Z,14.50
2019-04-22T03:09:38.478Z,14.50
2019-04-22T03:12:16.445Z,14.50
2019-04-22T03:14:46.226Z,14.40
2019-04-22T03:17:17.635Z,14.30
2019-04-22T03:19:57.183Z,14.20
2019-04-22T03:24:46.263Z,14.30
2019-04-22T03:27:22.063Z,14.20
2019-04-22T03:30:33.648Z,14.20
2019-04-22T03:32:52.656Z,14.30
2019-04-22T03:42:46.973Z,14.00
2019-04-22T03:45:17.325Z,14.00
2019-04-22T03:47:36.681Z,13.90
2019-04-22T04:00:08.467Z,13.80
2019-04-22T04:02:38.939Z,13.80
2019-04-22T04:04:59.459Z,13.70
2019-04-22T04:10:14.998Z,13.70
2019-04-22T04:12:38.607Z,13.70
2019-04-22T04:15:13.948Z,13.80
2019-04-22T04:20:10.947Z,13.80
2019-04-22T04:30:14.347Z,13.70
2019-04-22T04:32:41.600Z,13.60
2019-04-22T04:35:23.506Z,13.60
2019-04-22T04:37:44.590Z,13.70
2019-04-22T04:40:26.914Z,13.70
2019-04-22T04:47:49.193Z,13.90
2019-04-22T04:53:02.645Z,14.00
2019-04-22T05:05:28.827Z,14.10
2019-04-22T05:07:48.331Z,14.00
2019-04-22T05:10:26.601Z,14.00
2019-04-22T05:12:53.554Z,14.00
2019-04-22T05:17:47.367Z,14.10
2019-04-22T05:22:44.633Z,14.20
2019-04-22T05:25:11.710Z,14.20
2019-04-22T05:32:44.605Z,14.30
2019-04-22T05:35:14.311Z,14.40
2019-04-22T05:37:40.311Z,14.40
2019-04-22T05:42:39.559Z,14.50
2019-04-22T05:47:38.955Z,14.80
2019-04-22T05:50:13.101Z,14.60
2019-04-22T05:52:42.701Z,14.60
2019-04-22T05:55:14.346Z,14.80
2019-04-22T05:57:47.075Z,15.00
2019-04-22T06:00:25.837Z,15.20
2019-04-22T06:02:55.661Z,15.30
2019-04-22T06:05:16.934Z,15.40
2019-04-22T06:07:45.689Z,15.60
2019-04-22T06:10:41.124Z,15.70
2019-04-22T06:12:55.071Z,15.90
2019-04-22T06:15:27.099Z,16.00
2019-04-22T06:18:07.950Z,16.00
2019-04-22T06:20:32.667Z,16.00
2019-04-22T06:28:03.469Z,16.70
2019-04-22T06:30:36.620Z,16.80
2019-04-22T06:33:12.939Z,16.90
2019-04-22T06:35:39.040Z,17.20
2019-04-22T06:43:13.603Z,17.80
2019-04-22T06:45:37.364Z,18.00
2019-04-22T06:48:08.335Z,18.30
2019-04-22T06:53:25.206Z,18.70
2019-04-22T06:58:04.830Z,19.40
2019-04-22T07:05:43.818Z,20.50
2019-04-22T07:08:34.649Z,21.00
2019-04-22T07:10:44.860Z,21.10
2019-04-22T07:13:11.512Z,20.70
2019-04-22T07:20:47.996Z,20.80
2019-04-22T07:23:13.856Z,20.90
2019-04-22T07:25:41.068Z,21.20
2019-04-22T07:28:13.946Z,21.10
2019-04-22T07:30:44.625Z,21.40
2019-04-22T07:33:34.868Z,21.70
2019-04-22T07:36:00.642Z,21.70
2019-04-22T07:38:17.516Z,21.80
2019-04-22T07:40:51.933Z,21.60
2019-04-22T07:43:32.128Z,21.60
2019-04-22T07:45:58.839Z,21.70
2019-04-22T07:51:03.542Z,21.90
2019-04-22T07:53:25.941Z,21.90
2019-04-22T07:55:55.453Z,21.90
2019-04-22T07:58:26.115Z,21.80
2019-04-22T08:00:55.335Z,22.30
2019-04-22T08:03:32.342Z,22.50
2019-04-22T08:06:05.376Z,22.60
2019-04-22T08:08:33.777Z,22.50
2019-04-22T08:11:21.942Z,22.50
2019-04-22T08:13:30.881Z,22.50
2019-04-22T08:15:58.122Z,22.70
2019-04-22T08:18:28.911Z,22.90
2019-04-22T08:20:58.691Z,23.10
2019-04-22T08:23:31.376Z,23.40
2019-04-22T08:26:11.396Z,23.20
2019-04-22T08:28:32.741Z,23.40
2019-04-22T08:31:05.880Z,23.30
2019-04-22T08:38:37.712Z,23.30
2019-04-22T08:41:23.139Z,23.40
2019-04-22T08:46:17.736Z,24.00
2019-04-22T08:48:43.898Z,24.30
2019-04-22T08:51:23.016Z,24.10
2019-04-22T08:53:57.523Z,24.20
2019-04-22T08:56:30.922Z,24.40
2019-04-22T08:59:06.999Z,24.60
2019-04-22T09:01:25.273Z,24.70
2019-04-22T09:03:52.780Z,24.60
2019-04-22T09:06:29.968Z,24.50
2019-04-22T09:08:56.388Z,24.60
2019-04-22T09:11:26.722Z,24.50
2019-04-22T09:16:27.909Z,24.60
2019-04-22T09:18:56.158Z,24.60
2019-04-22T09:21:27.645Z,24.60
2019-04-22T09:23:58.353Z,24.50
2019-04-22T09:26:30.654Z,24.60
2019-04-22T09:28:59.493Z,24.40
2019-04-22T09:31:23.447Z,24.40
2019-04-22T09:33:53.167Z,24.50
2019-04-22T09:36:29.024Z,24.30
2019-04-22T09:38:55.486Z,24.40
2019-04-22T09:41:27.191Z,24.40
2019-04-22T09:43:56.613Z,24.70
2019-04-22T09:46:32.832Z,24.60
2019-04-22T09:49:03.483Z,24.80
2019-04-22T09:51:25.742Z,24.80
2019-04-22T09:54:02.388Z,24.80
2019-04-22T09:56:31.888Z,25.20
2019-04-22T09:59:01.194Z,25.50
2019-04-22T10:01:30.302Z,25.80
2019-04-22T10:06:36.928Z,26.00
2019-04-22T10:09:12.707Z,26.30
2019-04-22T10:11:36.116Z,26.00
2019-04-22T10:14:03.909Z,25.80
2019-04-22T10:16:31.349Z,25.80
2019-04-22T10:24:03.350Z,26.20
2019-04-22T10:26:36.515Z,26.10
2019-04-22T10:29:08.538Z,26.20
2019-04-22T10:33:53.225Z,26.20
2019-04-22T10:36:07.966Z,26.30
2019-04-22T10:38:37.561Z,26.30
2019-04-22T10:41:06.202Z,26.30
2019-04-22T10:43:35.032Z,26.40
2019-04-22T10:46:04.099Z,26.10
2019-04-22T10:48:34.382Z,26.20
2019-04-22T10:51:04.454Z,26.20
2019-04-22T10:53:33.478Z,26.20
2019-04-22T10:56:03.209Z,26.30
2019-04-22T10:58:32.893Z,26.50
2019-04-22T11:01:03.418Z,26.80
2019-04-22T11:03:33.224Z,26.80
2019-04-22T11:06:03.317Z,26.60
2019-04-22T11:08:40.700Z,26.60
2019-04-22T11:11:18.009Z,26.60
2019-04-22T11:13:33.759Z,26.50
2019-04-22T11:16:03.506Z,26.00
2019-04-22T11:18:33.647Z,26.00
2019-04-22T11:21:02.924Z,26.10
2019-04-22T11:23:32.371Z,26.30
2019-04-22T11:26:01.827Z,26.50
2019-04-22T11:28:31.841Z,26.70
2019-04-22T11:31:00.929Z,26.80
2019-04-22T11:33:30.421Z,26.70
2019-04-22T11:35:59.986Z,26.80
2019-04-22T11:38:28.931Z,26.80
2019-04-22T11:40:59.424Z,26.60
2019-04-22T11:43:28.503Z,26.70
2019-04-22T11:45:57.509Z,26.90
2019-04-22T11:48:27.043Z,26.70
2019-04-22T11:50:55.911Z,26.50
2019-04-22T11:53:24.942Z,26.30
2019-04-22T11:55:54.874Z,26.20
2019-04-22T11:58:24.625Z,26.20
2019-04-22T12:00:55.153Z,26.20
2019-04-22T12:03:25.147Z,26.20
2019-04-22T12:05:55.462Z,26.20
2019-04-22T12:08:25.035Z,26.10
2019-04-22T12:10:58.265Z,26.30
2019-04-22T12:13:26.057Z,26.60
2019-04-22T12:15:55.478Z,26.80
2019-04-22T12:18:24.955Z,26.80
2019-04-22T12:20:55.208Z,27.00
2019-04-22T12:23:25.156Z,27.20
2019-04-22T12:26:00.998Z,27.30
2019-04-22T12:28:24.202Z,27.20
2019-04-22T12:30:53.545Z,27.30
2019-04-22T12:33:23.367Z,27.50
2019-04-22T12:35:52.767Z,27.60
2019-04-22T12:38:22.112Z,27.50
2019-04-22T12:40:56.430Z,27.40
2019-04-22T12:43:23.894Z,27.60
2019-04-22T12:45:52.167Z,27.60
2019-04-22T12:48:21.356Z,27.50
2019-04-22T12:50:52.204Z,27.40
2019-04-22T12:53:22.569Z,27.40
2019-04-22T12:55:53.325Z,27.50
2019-04-22T12:58:20.774Z,27.30
2019-04-22T13:00:51.373Z,27.30
2019-04-22T13:03:20.400Z,27.10
2019-04-22T13:05:49.583Z,26.90
2019-04-22T13:08:18.146Z,27.00
2019-04-22T13:10:55.458Z,27.20
2019-04-22T13:13:16.865Z,27.60
2019-04-22T13:15:46.707Z,27.90
2019-04-22T13:18:23.870Z,28.10
2019-04-22T13:20:46.388Z,28.10
2019-04-22T13:23:15.735Z,28.10
2019-04-22T13:25:44.892Z,27.90
2019-04-22T13:28:15.361Z,27.80
2019-04-22T13:30:44.446Z,27.80
2019-04-22T13:33:13.006Z,27.60
2019-04-22T13:35:41.693Z,27.40
2019-04-22T13:38:11.120Z,27.20
2019-04-22T13:40:55.710Z,27.20
2019-04-22T13:43:11.102Z,27.50
2019-04-22T13:45:40.796Z,27.50
2019-04-22T13:48:29.633Z,27.30
2019-04-22T13:53:46.186Z,27.30
2019-04-22T13:56:05.562Z,27.30
2019-04-22T13:58:25.963Z,27.20
2019-04-22T14:00:42.550Z,27.10
2019-04-22T14:03:29.124Z,27.00
2019-04-22T14:06:00.694Z,27.20
2019-04-22T14:08:31.212Z,26.70
2019-04-22T14:11:11.887Z,26.60
2019-04-22T14:13:30.137Z,26.70
2019-04-22T14:15:59.443Z,26.80
2019-04-22T14:18:28.747Z,26.90
2019-04-22T14:20:58.692Z,26.80
2019-04-22T14:23:28.653Z,26.80
2019-04-22T14:25:59.014Z,26.90
2019-04-22T14:28:29.263Z,26.80
2019-04-22T14:30:58.052Z,26.60
2019-04-22T14:33:27.829Z,26.60
2019-04-22T14:35:58.076Z,26.50
2019-04-22T14:38:30.156Z,26.50
2019-04-22T14:41:00.590Z,26.60
2019-04-22T14:44:00.569Z,26.80
2019-04-22T14:46:30.177Z,26.80
2019-04-22T14:48:57.610Z,26.60
2019-04-22T14:51:25.386Z,26.60
2019-04-22T14:53:52.514Z,26.50
2019-04-22T14:56:02.293Z,26.60
2019-04-22T14:58:31.262Z,26.60
2019-04-22T15:01:01.256Z,26.60
2019-04-22T15:03:31.406Z,26.70
2019-04-22T15:06:02.083Z,26.80
2019-04-22T15:08:31.079Z,26.80
2019-04-22T15:11:00.169Z,27.00
2019-04-22T15:13:29.436Z,27.00
2019-04-22T15:16:05.778Z,27.00
2019-04-22T15:18:41.971Z,26.90
2019-04-22T15:21:18.669Z,26.80
2019-04-22T15:23:48.393Z,26.60
2019-04-22T15:26:17.300Z,26.50
2019-04-22T15:28:47.146Z,26.50
2019-04-22T15:31:15.826Z,26.20
2019-04-22T15:33:48.229Z,26.20
2019-04-22T15:36:15.288Z,26.20
2019-04-22T15:38:45.029Z,26.40
2019-04-22T15:41:14.672Z,26.40
2019-04-22T15:43:43.681Z,26.50
2019-04-22T15:46:13.918Z,26.30
2019-04-22T15:48:44.078Z,26.40
2019-04-22T15:51:13.254Z,26.30
2019-04-22T15:53:41.728Z,26.40
2019-04-22T15:56:10.544Z,26.50
2019-04-22T15:58:39.637Z,26.60
2019-04-22T16:01:15.119Z,26.60
2019-04-22T16:03:38.756Z,26.60
2019-04-22T16:06:08.267Z,26.40
2019-04-22T16:08:39.125Z,26.50
2019-04-22T16:11:07.257Z,26.30
2019-04-22T16:13:38.066Z,26.30
2019-04-22T16:16:06.948Z,26.20
2019-04-22T16:18:36.137Z,26.10
2019-04-22T16:21:05.070Z,25.90
2019-04-22T16:23:38.243Z,25.70
2019-04-22T16:26:15.332Z,25.70
2019-04-22T16:28:45.176Z,25.70
2019-04-22T16:31:15.274Z,25.80
2019-04-22T16:33:47.348Z,25.80
2019-04-22T16:36:14.469Z,25.70
2019-04-22T16:38:43.036Z,25.60
2019-04-22T16:41:12.916Z,25.50
2019-04-22T16:43:42.838Z,25.50
2019-04-22T16:46:12.025Z,25.50
2019-04-22T16:48:40.497Z,25.50
2019-04-22T16:51:09.915Z,25.40
2019-04-22T16:53:39.034Z,25.30
2019-04-22T16:56:08.808Z,25.40
2019-04-22T16:58:38.747Z,25.40
2019-04-22T17:01:10.256Z,25.30
2019-04-22T17:03:58.445Z,25.30
2019-04-22T17:06:29.876Z,25.40
2019-04-22T17:08:58.822Z,25.60
2019-04-22T17:11:27.608Z,25.70
2019-04-22T17:13:57.315Z,25.70
2019-04-22T17:16:26.258Z,25.70
2019-04-22T17:18:56.439Z,25.50
2019-04-22T17:21:25.912Z,25.40
2019-04-22T17:23:55.946Z,25.40
2019-04-22T17:26:26.514Z,25.30
2019-04-22T17:28:55.509Z,25.00
2019-04-22T17:31:24.822Z,24.80
2019-04-22T17:33:54.824Z,24.60
2019-04-22T17:36:26.407Z,24.50
2019-04-22T17:39:12.855Z,24.50
2019-04-22T17:41:48.665Z,24.20
2019-04-22T17:44:27.820Z,24.00
2019-04-22T17:46:48.247Z,23.90
2019-04-22T17:49:33.982Z,23.80
2019-04-22T17:52:17.404Z,23.70
2019-04-22T17:54:49.272Z,23.70
2019-04-22T17:57:17.708Z,23.50
2019-04-22T17:59:46.965Z,23.50
2019-04-22T18:02:15.611Z,23.50
2019-04-22T18:04:37.673Z,23.40
2019-04-22T18:07:23.386Z,23.20
2019-04-22T18:10:16.217Z,23.10
2019-04-22T18:12:25.771Z,23.10
2019-04-22T18:14:59.496Z,23.00
2019-04-22T18:17:25.424Z,23.00
2019-04-22T18:19:51.998Z,22.80
2019-04-22T18:22:22.638Z,22.70
2019-04-22T18:24:52.956Z,22.60
2019-04-22T18:27:40.152Z,22.60
2019-04-22T18:29:59.051Z,22.50
2019-04-22T18:32:20.461Z,22.40
2019-04-22T18:34:51.649Z,22.20
2019-04-22T18:37:19.946Z,22.10
2019-04-22T18:40:02.207Z,22.20
2019-04-22T18:42:26.821Z,22.10
2019-04-22T18:45:20.336Z,22.00
2019-04-22T18:47:24.864Z,21.90
2019-04-22T18:49:56.769Z,21.80
2019-04-22T18:52:47.060Z,21.60
2019-04-22T18:55:22.097Z,21.60
2019-04-22T18:58:03.051Z,21.40
2019-04-22T19:00:21.149Z,21.20
2019-04-22T19:02:55.780Z,21.20
2019-04-22T19:05:43.865Z,21.20
2019-04-22T19:08:18.209Z,21.10
2019-04-22T19:16:09.781Z,20.90
2019-04-22T19:18:25.655Z,20.80
2019-04-22T19:20:59.200Z,20.80
2019-04-22T19:23:22.674Z,20.80
2019-04-22T19:25:47.469Z,20.80
2019-04-22T19:28:29.303Z,20.70
2019-04-22T19:30:56.329Z,20.60
2019-04-22T19:33:25.078Z,20.60
2019-04-22T19:35:49.914Z,20.60
2019-04-22T19:38:14.291Z,20.50
2019-04-22T19:41:03.381Z,20.40
2019-04-22T19:43:30.881Z,20.40
2019-04-22T19:45:55.346Z,20.30
2019-04-22T19:48:32.971Z,20.40
2019-04-22T19:51:04.269Z,20.40
2019-04-22T19:53:32.185Z,20.30
2019-04-22T19:55:54.095Z,20.40
2019-04-22T19:58:27.771Z,20.40
2019-04-22T20:01:08.822Z,20.30
2019-04-22T20:04:03.466Z,20.20
2019-04-22T20:06:44.105Z,20.20
2019-04-22T20:09:20.733Z,20.10
2019-04-22T20:11:43.817Z,20.00
2019-04-22T20:14:19.827Z,20.00
2019-04-22T20:16:53.398Z,20.00
2019-04-22T20:19:31.966Z,19.90
2019-04-22T20:21:51.964Z,19.80
2019-04-22T20:24:12.022Z,19.80
2019-04-22T20:26:58.180Z,19.80
2019-04-22T20:29:33.415Z,19.70
2019-04-22T20:31:54.390Z,19.70
2019-04-22T20:34:24.050Z,19.60
2019-04-22T20:39:33.187Z,19.50
2019-04-22T20:42:05.575Z,19.50
2019-04-22T20:44:37.266Z,19.60
2019-04-22T20:46:57.470Z,19.60
2019-04-22T20:49:30.562Z,19.60
2019-04-22T20:54:32.650Z,19.60
2019-04-22T20:56:57.840Z,19.50
2019-04-22T20:59:27.148Z,19.50
2019-04-22T21:01:58.057Z,19.50
2019-04-22T21:04:23.977Z,19.50
2019-04-22T21:06:56.002Z,19.50
2019-04-22T21:09:33.329Z,19.40
2019-04-22T21:11:56.625Z,19.30
2019-04-22T21:14:30.686Z,19.20
2019-04-22T21:17:00.383Z,19.20
2019-04-22T21:19:43.320Z,19.10
2019-04-22T21:22:03.530Z,19.10
2019-04-22T21:24:29.050Z,19.10
2019-04-22T21:27:10.261Z,19.10
2019-04-22T21:29:30.471Z,19.10
2019-04-22T21:32:12.133Z,19.00
2019-04-22T21:34:47.596Z,18.90
2019-04-22T21:37:16.079Z,19.00
2019-04-22T21:39:39.933Z,19.00
2019-04-22T21:42:06.312Z,19.10
2019-04-22T21:44:38.334Z,19.00
2019-04-22T21:47:16.009Z,18.90
2019-04-22T21:49:42.581Z,18.80
2019-04-22T21:52:13.461Z,18.80
2019-04-22T21:54:46.692Z,18.80
2019-04-22T21:57:30.629Z,18.70
2019-04-22T22:00:00.681Z,18.60
2019-04-22T22:02:31.384Z,18.60
2019-04-22T22:04:58.945Z,18.60
2019-04-22T22:07:14.481Z,18.60
2019-04-22T22:10:01.950Z,18.60
2019-04-22T22:12:33.774Z,18.50
2019-04-22T22:15:04.181Z,18.30
2019-04-22T22:17:31.114Z,18.30
2019-04-22T22:19:57.807Z,18.30
2019-04-22T22:25:01.460Z,17.90
2019-04-22T22:27:34.189Z,17.90
2019-04-22T22:30:21.917Z,17.90
2019-04-22T22:32:36.749Z,17.90
2019-04-22T22:35:02.621Z,17.90
2019-04-22T22:37:21.977Z,18.00
2019-04-22T22:39:54.109Z,18.00
2019-04-22T22:42:22.557Z,17.90
2019-04-22T22:44:48.633Z,17.80
2019-04-22T22:47:36.479Z,17.70
2019-04-22T22:50:07.299Z,17.60
2019-04-22T22:52:53.787Z,17.50
2019-04-22T22:55:10.862Z,17.40
2019-04-22T22:57:38.253Z,17.30
2019-04-22T23:00:03.878Z,17.20
2019-04-22T23:02:48.693Z,17.20
2019-04-22T23:05:09.573Z,17.20
2019-04-22T23:07:40.934Z,17.00
2019-04-22T23:10:09.722Z,16.90
2019-04-22T23:12:51.586Z,16.90
2019-04-22T23:15:06.193Z,16.90
2019-04-22T23:17:25.942Z,16.80
2019-04-22T23:19:52.788Z,16.80
2019-04-22T23:22:28.398Z,16.90
2019-04-22T23:25:14.455Z,16.80
2019-04-22T23:27:40.424Z,16.90
2019-04-22T23:30:06.433Z,16.90
2019-04-22T23:32:41.204Z,16.90
2019-04-22T23:35:35.337Z,16.90
2019-04-22T23:38:08.094Z,16.90
2019-04-22T23:40:38.484Z,16.90
2019-04-22T23:43:15.494Z,16.90
2019-04-22T23:45:48.140Z,16.80
2019-04-22T23:48:13.075Z,16.90
2019-04-22T23:50:49.473Z,17.00
2019-04-22T23:53:25.336Z,16.90
2019-04-22T23:55:53.193Z,16.70
2019-04-22T23:58:35.665Z,16.60
